Time;durP1;ratioP1;P1;durP2;ratioP2;P2;SDS_P1;SDS_P2;PMS_P1;PMS_P2;Temp;Humidity;BMP_temperature;BMP_pressure;BME280_temperature;BME280_humidity;BME280_pressure;Samples;Min_cycle;Max_cycle;Signal;HPM_P1;HPM_P2
2023/04/01 00:02:03;;;;;;;1.15;0.50;;;10.30;99.30;;;;;;5048485;28;20489;-69
2023/04/01 00:04:30;;;;;;;1.60;0.70;;;10.40;99.20;;;;;;5049741;28;20435;-69
2023/04/01 00:06:56;;;;;;;1.50;0.60;;;10.40;98.90;;;;;;5061404;28;20484;-68
2023/04/01 00:09:25;;;;;;;0.93;0.50;;;10.40;98.60;;;;;;5065483;28;20415;-68
2023/04/01 00:11:51;;;;;;;1.80;0.70;;;10.50;98.30;;;;;;5043966;28;20521;-67
2023/04/01 00:14:18;;;;;;;1.17;0.55;;;10.50;98.20;;;;;;5043496;28;20513;-68
2023/04/01 00:16:45;;;;;;;2.03;0.60;;;10.50;98.40;;;;;;5044872;28;20425;-68
2023/04/01 00:19:11;;;;;;;1.60;0.70;;;10.50;98.00;;;;;;5043539;28;20451;-67
2023/04/01 00:21:38;;;;;;;0.82;0.50;;;10.50;97.90;;;;;;5052757;28;20419;-68
2023/04/01 00:24:05;;;;;;;1.90;0.50;;;10.60;97.60;;;;;;5051502;28;20452;-68
2023/04/01 00:26:33;;;;;;;1.35;0.52;;;10.60;97.80;;;;;;5057433;28;20418;-68
2023/04/01 00:29:00;;;;;;;2.60;0.65;;;10.60;97.60;;;;;;5045430;28;20428;-69
2023/04/01 00:31:27;;;;;;;1.45;0.52;;;10.60;97.90;;;;;;5042890;28;20721;-67
2023/04/01 00:33:53;;;;;;;1.95;0.60;;;10.60;97.50;;;;;;5040652;28;20899;-69
2023/04/01 00:36:22;;;;;;;0.70;0.40;;;10.60;97.50;;;;;;5044310;28;20436;-67
2023/04/01 00:38:50;;;;;;;1.90;0.50;;;10.60;97.30;;;;;;5049145;28;20421;-69
2023/04/01 00:41:18;;;;;;;1.20;0.40;;;10.70;97.50;;;;;;5058920;28;20570;-68
2023/04/01 00:43:47;;;;;;;1.13;0.50;;;10.70;97.80;;;;;;5059512;28;20416;-68
2023/04/01 00:46:15;;;;;;;2.28;0.65;;;10.60;98.00;;;;;;5047289;28;20496;-68
2023/04/01 00:48:45;;;;;;;2.30;0.60;;;10.60;98.20;;;;;;5047545;28;20856;-67
2023/04/01 00:51:16;;;;;;;1.20;0.40;;;10.60;98.40;;;;;;5046367;28;20520;-69
2023/04/01 00:53:46;;;;;;;1.10;0.50;;;10.60;98.30;;;;;;5045966;28;20413;-68
2023/04/01 00:56:16;;;;;;;1.60;0.60;;;10.50;98.30;;;;;;5047036;28;20420;-67
2023/04/01 00:58:49;;;;;;;1.27;0.50;;;10.50;98.00;;;;;;5062816;28;20434;-68
2023/04/01 01:01:16;;;;;;;1.20;0.50;;;10.60;98.50;;;;;;5053191;28;20429;-68
2023/04/01 01:03:43;;;;;;;1.33;0.50;;;10.50;98.30;;;;;;5044810;28;20447;-69
2023/04/01 01:06:25;;;;;;;2.00;0.50;;;10.50;98.00;;;;;;5058659;28;20507;-68
2023/04/01 01:09:15;;;;;;;0.80;0.40;;;10.50;97.90;;;;;;5035075;28;20440;-69
2023/04/01 01:11:45;;;;;;;1.40;0.50;;;10.60;98.20;;;;;;5046650;28;20417;-68
2023/04/01 01:14:30;;;;;;;1.17;0.40;;;10.60;97.70;;;;;;5045255;28;20970;-70
2023/04/01 01:17:07;;;;;;;1.25;0.50;;;10.60;97.70;;;;;;5045157;28;20900;-69
2023/04/01 01:20:00;;;;;;;0.97;0.40;;;10.60;97.90;;;;;;5045944;28;20503;-67
2023/04/01 01:22:50;;;;;;;1.02;0.40;;;10.70;97.50;;;;;;4991037;28;20503;-68
2023/04/01 01:25:32;;;;;;;1.45;0.50;;;10.70;97.40;;;;;;5041968;28;20882;-68
2023/04/01 01:28:16;;;;;;;1.50;0.60;;;10.60;97.60;;;;;;5045113;28;20417;-70
2023/04/01 01:30:53;;;;;;;1.00;0.40;;;10.70;97.70;;;;;;5046109;28;20440;-68
2023/04/01 01:33:33;;;;;;;1.17;0.40;;;10.60;97.40;;;;;;5045304;28;20938;-68
2023/04/01 01:36:05;;;;;;;1.20;0.70;;;10.70;97.40;;;;;;5045281;28;20421;-68
2023/04/01 01:38:35;;;;;;;1.20;0.60;;;10.60;97.50;;;;;;5046253;28;20959;-69
2023/04/01 01:41:05;;;;;;;0.90;0.50;;;10.60;98.20;;;;;;5033821;28;20418;-67
2023/04/01 01:43:36;;;;;;;0.90;0.40;;;10.60;98.80;;;;;;5045898;28;20907;-68
2023/04/01 01:46:08;;;;;;;1.60;0.40;;;10.50;99.90;;;;;;5058538;28;20417;-67
2023/04/01 01:48:36;;;;;;;1.70;0.50;;;10.40;99.90;;;;;;5046532;28;20420;-69
2023/04/01 01:51:06;;;;;;;1.00;0.50;;;10.30;99.90;;;;;;5042179;28;20426;-68
2023/04/01 01:53:32;;;;;;;1.15;0.40;;;10.20;99.90;;;;;;5042732;28;20421;-67
2023/04/01 01:55:59;;;;;;;1.58;0.50;;;10.10;99.90;;;;;;5039706;28;20449;-68
2023/04/01 01:58:30;;;;;;;1.20;0.40;;;10.10;99.90;;;;;;5050841;28;20425;-67
2023/04/01 02:01:00;;;;;;;1.60;0.40;;;10.10;99.90;;;;;;5053400;28;20417;-69
2023/04/01 02:03:31;;;;;;;1.20;0.30;;;10.00;99.90;;;;;;5050555;28;20515;-68
2023/04/01 02:06:01;;;;;;;1.30;0.35;;;10.00;99.90;;;;;;5054317;28;20421;-69
2023/04/01 02:08:35;;;;;;;1.05;0.90;;;9.90;99.90;;;;;;5054943;28;20969;-68
2023/04/01 02:11:04;;;;;;;1.80;0.50;;;9.70;99.90;;;;;;5053622;28;20706;-69
2023/04/01 02:13:38;;;;;;;1.90;0.50;;;9.60;99.90;;;;;;5057123;28;20463;-68
2023/04/01 02:16:09;;;;;;;1.10;0.47;;;9.50;99.90;;;;;;5053496;28;20879;-67
2023/04/01 02:18:38;;;;;;;1.80;0.50;;;9.50;99.90;;;;;;5041238;28;20451;-69
2023/04/01 02:21:06;;;;;;;1.80;0.70;;;9.40;99.90;;;;;;5055415;28;20424;-66
2023/04/01 02:23:36;;;;;;;1.50;0.60;;;9.30;99.90;;;;;;5060570;28;20576;-67
2023/04/01 02:26:06;;;;;;;1.30;0.40;;;9.30;99.90;;;;;;5060466;28;20417;-66
2023/04/01 02:28:35;;;;;;;1.20;0.40;;;9.20;99.90;;;;;;5059930;28;20811;-68
2023/04/01 02:31:02;;;;;;;2.00;0.50;;;9.20;99.90;;;;;;5054476;28;20428;-69
2023/04/01 02:33:32;;;;;;;1.50;0.60;;;9.10;99.90;;;;;;5055098;28;20509;-68
2023/04/01 02:35:59;;;;;;;1.77;0.70;;;9.10;99.90;;;;;;5048374;28;20535;-69
2023/04/01 02:38:26;;;;;;;1.75;0.60;;;9.10;99.90;;;;;;5057816;28;20906;-68
2023/04/01 02:41:00;;;;;;;1.20;0.50;;;9.00;99.90;;;;;;5058324;28;20438;-68
2023/04/01 02:43:27;;;;;;;1.00;0.50;;;9.00;99.90;;;;;;5045950;28;20421;-68
2023/04/01 02:45:54;;;;;;;2.25;0.60;;;8.90;99.90;;;;;;5051204;28;20417;-67
2023/04/01 02:48:21;;;;;;;1.42;0.40;;;8.90;99.90;;;;;;5053158;28;20420;-69
2023/04/01 02:50:49;;;;;;;0.95;0.63;;;8.90;99.90;;;;;;5052543;28;20421;-67
2023/04/01 02:53:19;;;;;;;1.30;0.40;;;8.90;99.90;;;;;;5058716;28;20580;-68
2023/04/01 02:55:46;;;;;;;1.10;0.40;;;8.90;99.90;;;;;;5063673;28;20440;-69
2023/04/01 02:58:14;;;;;;;0.88;0.47;;;8.90;99.90;;;;;;5060520;28;20437;-68
2023/04/01 03:00:41;;;;;;;1.50;0.50;;;8.90;99.90;;;;;;5051651;28;20460;-68
2023/04/01 03:03:08;;;;;;;1.10;0.43;;;8.90;99.90;;;;;;5042977;28;20794;-69
2023/04/01 03:05:35;;;;;;;1.70;0.50;;;8.80;99.90;;;;;;5045178;28;20421;-68
2023/04/01 03:08:02;;;;;;;1.27;0.40;;;8.80;99.90;;;;;;5046412;28;20457;-69
2023/04/01 03:10:29;;;;;;;1.00;0.50;;;8.80;99.90;;;;;;5046624;28;20436;-69
2023/04/01 03:12:56;;;;;;;1.10;0.40;;;8.80;99.90;;;;;;5044789;28;20425;-69
2023/04/01 03:15:24;;;;;;;1.45;0.60;;;8.80;99.90;;;;;;5045931;28;20431;-69
2023/04/01 03:17:51;;;;;;;0.80;0.40;;;8.80;99.90;;;;;;5046911;28;20434;-67
2023/04/01 03:20:18;;;;;;;1.57;0.40;;;8.80;99.90;;;;;;5047446;28;20464;-68
2023/04/01 03:22:45;;;;;;;0.90;0.50;;;8.80;99.90;;;;;;5046697;28;20427;-67
2023/04/01 03:25:12;;;;;;;0.90;0.40;;;8.80;99.90;;;;;;5047226;28;20476;-67
2023/04/01 03:27:39;;;;;;;1.00;0.40;;;8.80;99.90;;;;;;5044784;28;20413;-68
2023/04/01 03:30:07;;;;;;;0.80;0.40;;;8.80;99.90;;;;;;5046619;28;20500;-67
2023/04/01 03:32:35;;;;;;;1.55;0.50;;;8.80;99.90;;;;;;5045116;28;20480;-66
2023/04/01 03:35:02;;;;;;;0.82;0.40;;;8.80;99.90;;;;;;5044736;28;20435;-66
2023/04/01 03:37:29;;;;;;;1.77;0.50;;;8.80;99.90;;;;;;5044370;28;20429;-67
2023/04/01 03:39:55;;;;;;;1.40;0.50;;;8.80;99.90;;;;;;5054259;28;20529;-68
2023/04/01 03:42:22;;;;;;;1.50;0.50;;;8.80;99.90;;;;;;5046665;28;20413;-66
2023/04/01 03:44:49;;;;;;;1.33;0.40;;;8.90;99.90;;;;;;5045430;28;20588;-68
2023/04/01 03:47:16;;;;;;;2.10;0.60;;;8.90;99.90;;;;;;5043795;28;20606;-66
2023/04/01 03:49:44;;;;;;;1.50;0.57;;;8.90;99.90;;;;;;5045097;28;20417;-68
2023/04/01 03:52:12;;;;;;;1.20;0.40;;;8.80;99.90;;;;;;5031605;28;20545;-68
2023/04/01 03:54:38;;;;;;;1.05;0.40;;;8.80;99.90;;;;;;5044050;28;20432;-67
2023/04/01 03:57:05;;;;;;;1.00;0.50;;;8.90;99.90;;;;;;5044952;28;20425;-67
2023/04/01 03:59:32;;;;;;;0.70;0.50;;;8.90;99.90;;;;;;5042545;28;20482;-68
2023/04/01 04:01:59;;;;;;;1.13;0.50;;;8.90;99.90;;;;;;5044915;28;20417;-67
2023/04/01 04:04:25;;;;;;;1.33;0.40;;;8.90;99.90;;;;;;5044399;28;20489;-67
2023/04/01 04:06:54;;;;;;;1.50;0.50;;;8.90;99.90;;;;;;5043191;28;20429;-69
2023/04/01 04:09:20;;;;;;;0.68;0.30;;;9.00;99.90;;;;;;5044716;28;20493;-69
2023/04/01 04:11:47;;;;;;;1.33;0.40;;;9.00;99.90;;;;;;5047060;28;20795;-67
2023/04/01 04:14:14;;;;;;;1.40;0.40;;;9.10;99.90;;;;;;5048012;28;20754;-67
2023/04/01 04:16:40;;;;;;;0.98;0.50;;;9.10;99.90;;;;;;5049769;28;20760;-68
2023/04/01 04:19:07;;;;;;;0.97;0.50;;;9.10;99.90;;;;;;5050202;28;20442;-68
2023/04/01 04:21:34;;;;;;;1.10;0.70;;;9.20;99.90;;;;;;5049471;28;20433;-68
2023/04/01 04:24:03;;;;;;;0.80;0.40;;;9.20;99.90;;;;;;5048162;28;20582;-69
2023/04/01 04:26:29;;;;;;;0.88;0.45;;;9.20;99.90;;;;;;5049227;28;20500;-68
2023/04/01 04:28:57;;;;;;;0.80;0.40;;;9.20;99.90;;;;;;5048584;28;20486;-69
2023/04/01 04:31:25;;;;;;;1.20;0.40;;;9.30;99.90;;;;;;5048297;28;20420;-69
2023/04/01 04:33:52;;;;;;;0.88;0.30;;;9.30;99.90;;;;;;5047840;28;20478;-68
2023/04/01 04:36:19;;;;;;;1.50;0.40;;;9.30;99.90;;;;;;5051413;28;20515;-69
2023/04/01 04:38:46;;;;;;;0.80;0.30;;;9.40;99.90;;;;;;5053790;28;20987;-68
2023/04/01 04:41:15;;;;;;;1.10;0.40;;;9.40;99.90;;;;;;5060850;28;20430;-69
2023/04/01 04:43:43;;;;;;;1.60;0.50;;;9.40;99.90;;;;;;5045068;28;20630;-68
2023/04/01 04:46:09;;;;;;;0.98;0.30;;;9.30;99.90;;;;;;5046964;28;20424;-68
2023/04/01 04:48:37;;;;;;;0.80;0.30;;;9.30;99.90;;;;;;5048591;28;20413;-68
2023/04/01 04:51:04;;;;;;;1.00;0.40;;;9.20;99.90;;;;;;5047194;28;20827;-68
2023/04/01 04:53:31;;;;;;;0.90;0.40;;;9.10;99.90;;;;;;5044757;28;21052;-68
2023/04/01 04:55:57;;;;;;;0.70;0.30;;;9.10;99.90;;;;;;5046412;28;20428;-70
2023/04/01 04:58:26;;;;;;;0.70;0.40;;;9.10;99.90;;;;;;5045608;28;20441;-68
2023/04/01 05:00:53;;;;;;;0.70;0.30;;;9.00;99.90;;;;;;5038128;28;20457;-69
2023/04/01 05:03:19;;;;;;;1.00;0.40;;;8.90;99.90;;;;;;5042714;28;20421;-68
2023/04/01 05:05:50;;;;;;;1.30;0.50;;;8.90;99.90;;;;;;5048327;28;20423;-68
2023/04/01 05:08:17;;;;;;;1.73;0.47;;;8.90;99.90;;;;;;5046972;28;20428;-66
2023/04/01 05:10:44;;;;;;;0.80;0.40;;;8.90;99.90;;;;;;5048815;28;20417;-66
2023/04/01 05:13:11;;;;;;;0.70;0.50;;;8.90;99.90;;;;;;5047983;28;20876;-68
2023/04/01 05:15:39;;;;;;;0.80;0.30;;;8.90;99.90;;;;;;5046256;28;20425;-68
2023/04/01 05:18:06;;;;;;;0.70;0.40;;;8.90;99.90;;;;;;5046060;28;20421;-66
2023/04/01 05:20:33;;;;;;;1.60;0.40;;;8.90;99.90;;;;;;5048779;28;20432;-67
2023/04/01 05:23:00;;;;;;;0.60;0.40;;;8.90;99.90;;;;;;5043414;28;20799;-68
2023/04/01 05:25:27;;;;;;;0.63;0.40;;;8.90;99.90;;;;;;5047657;28;20577;-68
2023/04/01 05:27:54;;;;;;;0.73;0.43;;;8.90;99.90;;;;;;5047039;28;20922;-67
2023/04/01 05:30:21;;;;;;;1.00;0.40;;;8.90;99.90;;;;;;5049164;28;20418;-68
2023/04/01 05:32:49;;;;;;;1.10;0.45;;;9.00;99.90;;;;;;5047226;28;20433;-67
2023/04/01 05:35:16;;;;;;;0.88;0.50;;;9.00;99.90;;;;;;5047490;28;20417;-66
2023/04/01 05:37:43;;;;;;;0.80;0.50;;;9.00;99.90;;;;;;5047742;28;20731;-69
2023/04/01 05:40:10;;;;;;;0.90;0.50;;;9.00;99.90;;;;;;5048324;28;20437;-67
2023/04/01 05:42:37;;;;;;;0.75;0.50;;;9.00;99.90;;;;;;5034241;28;20841;-66
2023/04/01 05:45:05;;;;;;;0.90;0.50;;;9.00;99.90;;;;;;5047031;28;20473;-67
2023/04/01 05:47:31;;;;;;;0.80;0.50;;;9.00;99.90;;;;;;5058767;22;20452;-66
2023/04/01 05:49:59;;;;;;;0.80;0.50;;;9.00;99.90;;;;;;5049033;28;20421;-67
2023/04/01 05:52:26;;;;;;;0.80;0.60;;;9.00;99.90;;;;;;5051557;28;20419;-67
2023/04/01 05:54:53;;;;;;;2.00;0.60;;;9.00;99.90;;;;;;5058053;28;20417;-67
2023/04/01 05:57:20;;;;;;;1.35;0.50;;;9.00;99.90;;;;;;5041979;28;20931;-69
2023/04/01 05:59:47;;;;;;;1.50;0.50;;;9.00;99.90;;;;;;5028440;28;20987;-67
2023/04/01 06:02:16;;;;;;;2.10;0.70;;;9.00;99.90;;;;;;5039409;28;20738;-67
2023/04/01 06:04:43;;;;;;;1.10;0.60;;;9.00;99.90;;;;;;5029262;28;21402;-67
2023/04/01 06:07:14;;;;;;;1.00;0.70;;;9.00;99.90;;;;;;5037365;28;20439;-66
2023/04/01 06:09:41;;;;;;;1.95;0.70;;;9.00;99.90;;;;;;5054801;28;20920;-68
2023/04/01 06:12:34;;;;;;;1.00;0.60;;;9.00;99.90;;;;;;5059951;28;20783;-66
2023/04/01 06:15:14;;;;;;;1.40;0.88;;;8.90;99.90;;;;;;5045881;28;20824;-68
2023/04/01 06:18:02;;;;;;;1.23;0.90;;;8.90;99.90;;;;;;5042620;28;20445;-68
2023/04/01 06:20:38;;;;;;;1.50;0.70;;;9.00;99.90;;;;;;5040425;28;20455;-67
2023/04/01 06:23:35;;;;;;;1.10;0.80;;;9.00;99.90;;;;;;5054327;28;20434;-68
2023/04/01 06:26:12;;;;;;;1.00;0.90;;;9.00;99.90;;;;;;4978422;28;20433;-69
2023/04/01 06:28:58;;;;;;;1.20;0.98;;;9.00;99.90;;;;;;5041358;28;20409;-73
2023/04/01 06:31:51;;;;;;;1.10;0.90;;;9.10;99.90;;;;;;5051778;28;20434;-70
2023/04/01 06:34:40;;;;;;;1.60;0.93;;;9.10;99.90;;;;;;5049755;28;20426;-70
2023/04/01 06:37:26;;;;;;;2.85;0.90;;;9.10;99.90;;;;;;5038596;28;20970;-70
2023/04/01 06:40:09;;;;;;;1.40;1.00;;;9.10;99.90;;;;;;5034967;28;20430;-70
2023/04/01 06:43:01;;;;;;;1.60;1.05;;;9.20;99.90;;;;;;5045682;28;20422;-72
2023/04/01 06:45:35;;;;;;;1.40;1.30;;;9.20;99.90;;;;;;5031832;28;20481;-71
2023/04/01 06:48:31;;;;;;;1.98;1.10;;;9.20;99.90;;;;;;5052322;28;20423;-72
2023/04/01 06:51:07;;;;;;;1.90;1.20;;;9.20;99.90;;;;;;5055323;28;20417;-69
2023/04/01 06:53:43;;;;;;;1.98;1.40;;;9.20;99.90;;;;;;5030606;28;20450;-70
2023/04/01 06:56:15;;;;;;;1.20;1.10;;;9.20;99.90;;;;;;5029024;28;20793;-71
2023/04/01 06:58:47;;;;;;;1.38;1.27;;;9.30;99.90;;;;;;5046045;28;20744;-71
2023/04/01 07:01:18;;;;;;;1.40;1.30;;;9.30;99.90;;;;;;5054569;28;20431;-70
2023/04/01 07:03:50;;;;;;;1.83;1.70;;;9.30;99.90;;;;;;5053170;28;20420;-71
2023/04/01 07:06:29;;;;;;;2.45;1.60;;;9.30;99.90;;;;;;5034411;28;20435;-71
2023/04/01 07:09:00;;;;;;;1.73;1.63;;;9.30;99.90;;;;;;5039857;28;20921;-70
2023/04/01 07:11:33;;;;;;;2.08;1.50;;;9.30;99.90;;;;;;5054933;28;20470;-71
2023/04/01 07:14:05;;;;;;;1.73;1.60;;;9.20;99.90;;;;;;5041898;28;20504;-71
2023/04/01 07:16:36;;;;;;;2.40;2.10;;;9.20;99.90;;;;;;5030122;28;20526;-71
2023/04/01 07:19:06;;;;;;;2.50;1.70;;;9.20;99.90;;;;;;5045398;28;20426;-73
2023/04/01 07:21:41;;;;;;;2.10;1.80;;;9.20;99.90;;;;;;5028335;28;20426;-72
2023/04/01 07:24:15;;;;;;;2.33;1.60;;;9.20;99.90;;;;;;5025449;28;20917;-71
2023/04/01 07:26:43;;;;;;;2.08;1.88;;;9.20;99.90;;;;;;5027091;28;20453;-71
2023/04/01 07:29:12;;;;;;;1.95;1.80;;;9.20;99.90;;;;;;5052914;28;20413;-70
2023/04/01 07:31:58;;;;;;;3.45;2.15;;;9.30;99.90;;;;;;5054173;28;20459;-70
2023/04/01 07:34:28;;;;;;;2.50;2.00;;;9.30;99.90;;;;;;5037444;28;20415;-70
2023/04/01 07:37:03;;;;;;;3.20;2.40;;;9.30;99.90;;;;;;5035903;28;20605;-70
2023/04/01 07:39:40;;;;;;;3.92;2.60;;;9.30;99.90;;;;;;5033363;28;20468;-72
2023/04/01 07:42:17;;;;;;;2.50;2.22;;;9.30;99.90;;;;;;5044889;28;20441;-71
2023/04/01 07:44:53;;;;;;;3.10;2.70;;;9.30;99.90;;;;;;5047477;28;20780;-72
2023/04/01 07:47:33;;;;;;;2.85;2.55;;;9.30;99.90;;;;;;5036313;28;20591;-71
2023/04/01 07:50:09;;;;;;;2.55;2.33;;;9.30;99.90;;;;;;5036297;28;20422;-73
2023/04/01 07:52:41;;;;;;;2.50;2.25;;;9.30;99.90;;;;;;5048066;28;20955;-71
2023/04/01 07:55:15;;;;;;;2.50;2.30;;;9.40;99.90;;;;;;5032957;28;20430;-72
2023/04/01 07:57:50;;;;;;;3.50;2.80;;;9.40;99.90;;;;;;5061495;28;20433;-71
2023/04/01 08:00:21;;;;;;;2.50;2.30;;;9.30;99.90;;;;;;5043300;28;20442;-73
2023/04/01 08:03:05;;;;;;;2.60;2.30;;;9.40;99.90;;;;;;5059673;28;20424;-72
2023/04/01 08:05:41;;;;;;;2.45;2.25;;;9.40;99.90;;;;;;5031335;28;20422;-73
2023/04/01 08:08:18;;;;;;;2.20;2.00;;;9.40;99.90;;;;;;5042980;28;20420;-72
2023/04/01 08:10:52;;;;;;;2.13;1.63;;;9.50;99.90;;;;;;5052015;28;20814;-73
2023/04/01 08:13:32;;;;;;;2.00;1.90;;;9.50;99.90;;;;;;5043477;28;20426;-73
2023/04/01 08:16:10;;;;;;;2.20;2.00;;;9.40;99.90;;;;;;5039428;28;20437;-72
2023/04/01 08:18:44;;;;;;;2.22;2.00;;;9.40;99.90;;;;;;5056432;28;20431;-71
2023/04/01 08:21:15;;;;;;;2.22;1.70;;;9.50;99.90;;;;;;5034084;28;20421;-70
2023/04/01 08:23:46;;;;;;;2.45;1.90;;;9.40;99.90;;;;;;5028735;28;20430;-70
2023/04/01 08:26:20;;;;;;;2.20;1.52;;;9.40;99.90;;;;;;5046499;28;20420;-72
2023/04/01 08:28:55;;;;;;;1.70;1.60;;;9.40;99.90;;;;;;5039735;28;20433;-72
2023/04/01 08:31:30;;;;;;;1.80;1.50;;;9.40;99.90;;;;;;5038305;28;20454;-70
2023/04/01 08:33:57;;;;;;;1.85;1.75;;;9.40;99.90;;;;;;5047918;28;20422;-72
2023/04/01 08:36:29;;;;;;;1.52;1.42;;;9.40;99.90;;;;;;5050058;28;20677;-71
2023/04/01 08:38:59;;;;;;;1.60;1.50;;;9.50;99.90;;;;;;5034072;28;20477;-71
2023/04/01 08:41:57;;;;;;;2.90;1.90;;;9.40;99.90;;;;;;5037630;28;20541;-72
2023/04/01 08:44:48;;;;;;;1.70;1.60;;;9.40;99.90;;;;;;5028267;28;20415;-73
2023/04/01 08:47:39;;;;;;;1.85;1.70;;;9.50;99.90;;;;;;5038663;28;20412;-73
2023/04/01 08:50:41;;;;;;;1.75;1.40;;;9.50;99.90;;;;;;5044825;28;20417;-72
2023/04/01 08:53:20;;;;;;;1.40;1.30;;;9.50;99.90;;;;;;5002916;28;20409;-71
2023/04/01 08:56:02;;;;;;;1.10;1.00;;;9.60;99.90;;;;;;5033410;28;20757;-72
2023/04/01 08:58:52;;;;;;;1.48;1.25;;;9.60;99.90;;;;;;5035469;28;20418;-71
2023/04/01 09:01:38;;;;;;;1.30;1.10;;;9.60;99.90;;;;;;5050035;28;20440;-71
2023/04/01 09:04:41;;;;;;;1.20;1.00;;;9.60;99.90;;;;;;5054707;28;20729;-71
2023/04/01 09:07:29;;;;;;;1.10;1.00;;;9.70;99.90;;;;;;5048159;28;20892;-71
2023/04/01 09:10:42;;;;;;;1.17;0.95;;;9.70;99.90;;;;;;5049639;28;20414;-71
2023/04/01 09:13:25;;;;;;;1.10;0.80;;;9.70;99.90;;;;;;5032728;28;20906;-71
2023/04/01 09:16:18;;;;;;;1.10;0.88;;;9.80;99.90;;;;;;5048392;28;20833;-72
2023/04/01 09:19:17;;;;;;;1.10;1.00;;;9.80;99.90;;;;;;5029725;28;20801;-72
2023/04/01 09:22:05;;;;;;;1.10;0.87;;;9.90;99.90;;;;;;5030733;28;20503;-72
2023/04/01 09:24:56;;;;;;;1.30;0.80;;;9.90;99.90;;;;;;5028553;28;20411;-71
2023/04/01 09:27:30;;;;;;;1.45;0.90;;;9.80;99.90;;;;;;5028599;28;20441;-73
2023/04/01 09:30:32;;;;;;;1.30;0.80;;;9.80;99.90;;;;;;5058081;28;20860;-72
2023/04/01 09:33:37;;;;;;;1.55;1.10;;;9.70;99.90;;;;;;5036370;28;20422;-73
2023/04/01 09:36:15;;;;;;;1.10;0.80;;;9.70;99.90;;;;;;5030697;28;20414;-72
2023/04/01 09:38:56;;;;;;;2.50;1.20;;;9.70;99.90;;;;;;5030157;28;20415;-72
2023/04/01 09:41:30;;;;;;;1.50;1.10;;;9.80;99.90;;;;;;5039805;28;20423;-72
2023/04/01 09:44:04;;;;;;;1.60;1.10;;;9.80;99.90;;;;;;5045959;28;20441;-72
2023/04/01 09:47:06;;;;;;;1.40;1.10;;;9.90;99.90;;;;;;5045700;28;20430;-71
2023/04/01 09:50:00;;;;;;;1.52;1.30;;;9.80;99.90;;;;;;4997905;28;20462;-72
2023/04/01 09:52:35;;;;;;;1.50;1.40;;;9.80;99.90;;;;;;5033591;28;20417;-74
2023/04/01 09:55:45;;;;;;;1.52;1.40;;;9.80;99.90;;;;;;5060800;28;20936;-71
2023/04/01 09:58:29;;;;;;;1.58;1.48;;;9.70;99.90;;;;;;5047774;28;20437;-70
2023/04/01 10:01:31;;;;;;;1.58;1.48;;;9.70;99.90;;;;;;5059071;28;20847;-70
2023/04/01 10:04:42;;;;;;;1.30;1.20;;;9.80;99.90;;;;;;5036280;28;20432;-71
2023/04/01 10:07:49;;;;;;;2.20;1.30;;;9.80;99.90;;;;;;4935794;28;20439;-72
2023/04/01 10:10:45;;;;;;;1.80;1.33;;;9.80;99.90;;;;;;5013967;28;20441;-72
2023/04/01 10:13:50;;;;;;;1.30;1.20;;;9.90;99.90;;;;;;5064787;28;20436;-71
2023/04/01 10:16:58;;;;;;;1.45;1.35;;;9.80;99.90;;;;;;4988256;28;20901;-71
2023/04/01 10:19:56;;;;;;;1.45;1.35;;;9.80;99.90;;;;;;5035154;28;20437;-71
2023/04/01 10:22:55;;;;;;;2.20;1.50;;;9.90;99.90;;;;;;5029102;28;20769;-71
2023/04/01 10:25:56;;;;;;;1.40;1.30;;;10.00;99.90;;;;;;5029806;28;20427;-71
2023/04/01 10:29:08;;;;;;;1.30;1.20;;;10.00;99.90;;;;;;5050821;28;20429;-70
2023/04/01 10:32:08;;;;;;;1.40;1.30;;;10.00;99.90;;;;;;5004948;28;20708;-71
2023/04/01 10:35:14;;;;;;;1.50;1.38;;;10.10;99.90;;;;;;5038576;28;20469;-71
2023/04/01 10:38:12;;;;;;;1.60;1.50;;;10.10;99.90;;;;;;5034706;28;20453;-73
2023/04/01 10:40:54;;;;;;;1.80;1.70;;;10.10;99.90;;;;;;5036946;28;20439;-72
2023/04/01 10:43:48;;;;;;;1.80;1.70;;;10.20;99.90;;;;;;5051615;28;20801;-72
2023/04/01 10:46:53;;;;;;;1.80;1.70;;;10.30;99.90;;;;;;5047450;28;20440;-72
2023/04/01 10:49:55;;;;;;;1.70;1.60;;;10.30;99.90;;;;;;5029876;28;20442;-72
2023/04/01 10:52:57;;;;;;;3.10;1.90;;;10.40;99.90;;;;;;5048133;28;20857;-72
2023/04/01 10:56:01;;;;;;;1.60;1.50;;;10.40;99.90;;;;;;5041539;28;20428;-71
2023/04/01 10:59:11;;;;;;;2.00;1.90;;;10.40;99.90;;;;;;5015879;28;20804;-71
2023/04/01 11:02:18;;;;;;;1.75;1.65;;;10.60;99.90;;;;;;5028820;28;20785;-72
2023/04/01 11:05:25;;;;;;;1.60;1.50;;;10.70;99.90;;;;;;5026757;28;20411;-71
2023/04/01 11:08:29;;;;;;;1.60;1.50;;;10.70;99.90;;;;;;5029720;28;20419;-72
2023/04/01 11:11:32;;;;;;;1.60;1.50;;;10.70;99.90;;;;;;4990164;28;20434;-71
2023/04/01 11:14:53;;;;;;;1.70;1.60;;;10.70;99.90;;;;;;5043305;28;20425;-73
2023/04/01 11:17:45;;;;;;;1.50;1.40;;;10.70;99.90;;;;;;4996191;28;20458;-72
2023/04/01 11:20:36;;;;;;;1.88;1.20;;;10.80;99.90;;;;;;5039132;28;20558;-71
2023/04/01 11:23:27;;;;;;;1.70;1.40;;;10.90;99.90;;;;;;5028707;28;20929;-73
2023/04/01 11:26:03;;;;;;;1.50;1.40;;;10.90;99.90;;;;;;5044160;28;20921;-72
2023/04/01 11:28:56;;;;;;;2.10;1.40;;;10.90;99.90;;;;;;5048320;28;20786;-71
2023/04/01 11:31:44;;;;;;;1.50;1.40;;;11.00;99.90;;;;;;5040883;28;20414;-72
2023/04/01 11:34:28;;;;;;;1.38;1.27;;;11.20;99.90;;;;;;5036138;28;20502;-72
2023/04/01 11:37:06;;;;;;;1.20;1.10;;;11.30;99.90;;;;;;5054389;28;20417;-73
2023/04/01 11:39:43;;;;;;;1.40;1.30;;;11.20;99.90;;;;;;5043125;28;20419;-73
2023/04/01 11:42:21;;;;;;;1.60;1.42;;;11.20;99.90;;;;;;5053616;28;20523;-70
2023/04/01 11:44:56;;;;;;;1.30;1.20;;;11.10;99.90;;;;;;5050934;28;20742;-71
2023/04/01 11:47:48;;;;;;;1.35;1.25;;;11.10;99.90;;;;;;5076098;22;20905;-70
2023/04/01 11:50:28;;;;;;;1.40;1.30;;;11.20;99.90;;;;;;5057816;28;20933;-70
2023/04/01 11:53:17;;;;;;;1.40;1.30;;;11.30;99.90;;;;;;5061294;28;20749;-70
2023/04/01 11:55:58;;;;;;;1.90;1.20;;;11.30;99.90;;;;;;5073705;28;20514;-70
2023/04/01 11:58:39;;;;;;;1.20;1.10;;;11.20;99.90;;;;;;5044700;28;20448;-70
2023/04/01 12:01:21;;;;;;;1.50;1.40;;;11.20;99.90;;;;;;5042749;28;20488;-70
2023/04/01 12:04:01;;;;;;;1.50;1.40;;;11.10;99.90;;;;;;5043464;28;20421;-70
2023/04/01 12:06:40;;;;;;;1.70;1.60;;;11.10;99.90;;;;;;5043541;28;20433;-70
2023/04/01 12:09:17;;;;;;;1.70;1.60;;;11.00;99.90;;;;;;5046488;28;20505;-70
2023/04/01 12:11:52;;;;;;;1.65;1.55;;;11.10;99.90;;;;;;5045540;28;20405;-70
2023/04/01 12:14:27;;;;;;;1.40;1.30;;;11.20;99.90;;;;;;5043335;28;20432;-69
2023/04/01 12:17:03;;;;;;;1.40;1.30;;;11.40;99.90;;;;;;5043125;28;20425;-69
2023/04/01 12:19:40;;;;;;;1.40;1.30;;;11.60;99.90;;;;;;5043422;28;20455;-69
2023/04/01 12:22:36;;;;;;;1.40;1.30;;;11.90;99.90;;;;;;5043733;28;20413;-69
2023/04/01 12:25:25;;;;;;;1.10;1.00;;;12.10;99.90;;;;;;5033119;28;20413;-70
2023/04/01 12:28:07;;;;;;;1.10;0.95;;;12.20;99.90;;;;;;5042241;28;20513;-70
2023/04/01 12:30:59;;;;;;;1.23;1.13;;;12.30;99.90;;;;;;5039850;28;20420;-69
2023/04/01 12:33:46;;;;;;;1.17;1.08;;;12.40;99.90;;;;;;5036346;28;20470;-70
2023/04/01 12:36:30;;;;;;;1.33;1.23;;;12.40;99.90;;;;;;5043993;28;20405;-70
2023/04/01 12:39:31;;;;;;;1.23;1.13;;;12.30;99.90;;;;;;5041831;28;20424;-70
2023/04/01 12:42:06;;;;;;;1.40;1.00;;;12.20;99.90;;;;;;5033836;28;20563;-70
2023/04/01 12:44:50;;;;;;;1.50;1.40;;;12.00;99.90;;;;;;5061107;28;20430;-70
2023/04/01 12:47:50;;;;;;;1.75;1.30;;;12.00;99.90;;;;;;5052256;28;20427;-70
2023/04/01 12:50:38;;;;;;;1.30;1.10;;;12.00;99.90;;;;;;5019807;28;20413;-70
2023/04/01 12:53:25;;;;;;;1.17;1.08;;;12.00;99.90;;;;;;5030141;28;20428;-70
2023/04/01 12:55:55;;;;;;;1.00;0.90;;;12.00;99.90;;;;;;5047541;28;20429;-70
2023/04/01 12:59:11;;;;;;;1.10;1.00;;;12.00;99.90;;;;;;5045186;28;20463;-70
2023/04/01 13:01:58;;;;;;;1.10;1.00;;;11.90;99.90;;;;;;5003535;28;20556;-70
2023/04/01 13:05:10;;;;;;;1.20;1.10;;;11.90;99.90;;;;;;5034043;28;20463;-70
2023/04/01 13:07:59;;;;;;;1.70;1.30;;;11.90;99.90;;;;;;5055476;28;20434;-71
2023/04/01 13:10:43;;;;;;;1.30;1.20;;;11.90;99.90;;;;;;5049334;28;20436;-69
2023/04/01 13:14:07;;;;;;;1.40;1.30;;;11.90;99.90;;;;;;5046608;28;20541;-68
2023/04/01 13:16:40;;;;;;;1.40;1.30;;;11.80;99.90;;;;;;4982962;28;20433;-70
2023/04/01 13:19:15;;;;;;;1.60;1.27;;;11.80;99.90;;;;;;4984220;28;20450;-70
2023/04/01 13:21:52;;;;;;;1.60;1.48;;;11.80;99.90;;;;;;5012294;28;20773;-68
2023/04/01 13:24:40;;;;;;;1.30;1.20;;;11.80;99.90;;;;;;5046761;28;20440;-69
2023/04/01 13:27:15;;;;;;;1.45;1.35;;;11.90;99.90;;;;;;5053263;28;20459;-71
2023/04/01 13:29:46;;;;;;;1.30;1.20;;;11.90;99.90;;;;;;5047174;28;20527;-71
2023/04/01 13:32:22;;;;;;;1.60;1.20;;;11.80;99.90;;;;;;5045063;28;20817;-70
2023/04/01 13:35:00;;;;;;;1.45;1.30;;;11.80;99.90;;;;;;5045832;28;20771;-71
2023/04/01 13:37:45;;;;;;;1.70;1.60;;;11.70;99.90;;;;;;5046267;28;20421;-69
2023/04/01 13:40:27;;;;;;;1.60;1.50;;;11.70;99.90;;;;;;5045477;28;20440;-70
2023/04/01 13:43:00;;;;;;;1.80;1.70;;;11.60;99.90;;;;;;5053638;28;20425;-69
2023/04/01 13:45:35;;;;;;;2.30;2.10;;;11.50;99.90;;;;;;5050409;28;20417;-71
2023/04/01 13:48:33;;;;;;;2.60;2.40;;;11.50;99.90;;;;;;5050696;28;20424;-69